This is the latest recevied weather packets stored in our database for station/object KE5YIM-13. If no packets are shown the sender has not sent any weather packets the latest 1 day(s).
| Time | Temp. | Humidity | Pressure | Rain* | Wind** | Luminosity | Snow |
|---|---|---|---|---|---|---|---|
| 1777990368 | 19.44° C | 70% | 1012.2 hPa | 0 mm | 0.89 m/s, 223° | 611 W/m² | - |
| 1777990064 | 18.89° C | 69% | 1012.2 hPa | 0 mm | 2.24 m/s, 263° | 599 W/m² | - |
| 1777989761 | 18.33° C | 70% | 1012.2 hPa | 0 mm | 1.34 m/s, 187° | 584 W/m² | - |
| 1777989457 | 18.33° C | 71% | 1012.2 hPa | 0 mm | 1.34 m/s, 241° | 559 W/m² | - |
| 1777989154 | 17.78° C | 73% | 1012.2 hPa | 0 mm | 1.79 m/s, 176° | 555 W/m² | - |
| 1777988850 | 17.78° C | 74% | 1012.5 hPa | 0 mm | 0.89 m/s, 199° | 542 W/m² | - |
| 1777988548 | 17.22° C | 74% | 1012.4 hPa | 0 mm | 0.89 m/s, 168° | 525 W/m² | - |
| 1777988244 | 17.22° C | 75% | 1012.3 hPa | 0 mm | 1.79 m/s, 173° | 521 W/m² | - |
| 1777987941 | 16.67° C | 75% | 1012.2 hPa | 0 mm | 1.79 m/s, 155° | 498 W/m² | - |
| 1777987636 | 16.11° C | 76% | 1012.3 hPa | 0 mm | 0.89 m/s, 169° | 468 W/m² | - |
| 1777987334 | 16.11° C | 77% | 1012.2 hPa | 0 mm | 0.89 m/s, 101° | 475 W/m² | - |
| 1777987031 | 16.11° C | 76% | 1012.3 hPa | 0 mm | 1.79 m/s, 169° | 455 W/m² | - |
| 1777986729 | 16.11° C | 78% | 1012.1 hPa | 0 mm | 0.45 m/s, 150° | 239 W/m² | - |
| 1777986426 | 15.56° C | 80% | 1011.9 hPa | 0 mm | 0 m/s | 448 W/m² | - |
| 1777986125 | 15.56° C | 80% | 1012.1 hPa | 0 mm | 1.34 m/s, 123° | 288 W/m² | - |
| 1777985821 | 15.56° C | 80% | 1012.1 hPa | 0 mm | 0.89 m/s, 121° | 194 W/m² | - |
| 1777985518 | 15.56° C | 81% | 1012.3 hPa | 0 mm | 0.89 m/s, 126° | 386 W/m² | - |
| 1777985215 | 15° C | 82% | 1012 hPa | 0 mm | 0.89 m/s, 181° | 214 W/m² | - |
| 1777984911 | 15° C | 83% | 1012.4 hPa | 0 mm | 1.34 m/s, 130° | 207 W/m² | - |
| 1777984607 | 14.44° C | 84% | 1012.3 hPa | 0 mm | 0.45 m/s, 69° | 138 W/m² | - |
| 1777984304 | 14.44° C | 86% | 1012.5 hPa | 0 mm | 0 m/s | 127 W/m² | - |
| 1777984000 | 13.89° C | 88% | 1012.4 hPa | 0 mm | 0.45 m/s, 111° | 175 W/m² | - |
| 1777983698 | 13.89° C | 92% | 1012.4 hPa | 0 mm | 0 m/s | 262 W/m² | - |
| 1777983394 | 12.78° C | 93% | 1012.5 hPa | 0 mm | 0 m/s | 175 W/m² | - |
| 1777983091 | 12.78° C | 95% | 1012.4 hPa | 0 mm | 0 m/s | 108 W/m² | - |
* Rain latest hour (hover to see other rain measurements)
** Current wind speed in m/s (hover to see current wind gust speed)